createdAt,value
2018-12-11T00:01:41.366Z,16.18
2018-12-11T00:04:16.704Z,16.16
2018-12-11T00:06:49.805Z,16.23
2018-12-11T00:09:23.187Z,16.21
2018-12-11T00:11:56.179Z,16.07
2018-12-11T00:14:29.465Z,16.09
2018-12-11T00:17:02.355Z,16.11
2018-12-11T00:19:35.521Z,16.10
2018-12-11T00:22:08.449Z,16.11
2018-12-11T00:24:41.576Z,16.08
2018-12-11T00:27:14.688Z,16.07
2018-12-11T00:29:47.772Z,16.03
2018-12-11T00:32:21.484Z,16.05
2018-12-11T00:34:54.924Z,16.01
2018-12-11T00:37:28.226Z,16.07
2018-12-11T00:40:01.310Z,16.01
2018-12-11T00:42:34.594Z,15.93
2018-12-11T00:45:07.855Z,15.84
2018-12-11T00:47:41.002Z,15.83
2018-12-11T00:50:14.156Z,15.85
2018-12-11T00:52:47.199Z,15.88
2018-12-11T00:55:20.266Z,15.89
2018-12-11T00:57:53.193Z,15.90
2018-12-11T01:00:26.258Z,15.93
2018-12-11T01:02:59.933Z,15.91
2018-12-11T01:05:32.968Z,15.90
2018-12-11T01:08:06.218Z,15.82
2018-12-11T01:10:39.114Z,15.81
2018-12-11T01:13:12.207Z,15.86
2018-12-11T01:15:45.494Z,15.86
2018-12-11T01:18:18.681Z,15.81
2018-12-11T01:20:51.706Z,15.80
2018-12-11T01:23:24.998Z,15.88
2018-12-11T01:25:58.227Z,15.81
2018-12-11T01:28:31.290Z,15.82
2018-12-11T01:31:04.350Z,15.83
2018-12-11T01:33:38.181Z,15.78
2018-12-11T01:36:11.310Z,15.84
2018-12-11T01:38:45.739Z,15.83
2018-12-11T01:41:19.085Z,15.74
2018-12-11T01:43:52.584Z,15.80
2018-12-11T01:46:25.916Z,15.76
2018-12-11T01:48:59.404Z,15.76
2018-12-11T01:51:32.420Z,15.72
2018-12-11T01:54:05.818Z,15.77
2018-12-11T01:56:38.810Z,15.75
2018-12-11T01:59:12.146Z,15.74
2018-12-11T02:01:45.374Z,15.75
2018-12-11T02:04:19.402Z,15.82
2018-12-11T02:06:52.488Z,15.78
2018-12-11T02:09:26.315Z,15.77
2018-12-11T02:11:59.457Z,15.81
2018-12-11T02:14:32.507Z,15.75
2018-12-11T02:17:05.370Z,15.75
2018-12-11T02:19:38.503Z,15.79
2018-12-11T02:22:11.539Z,15.87
2018-12-11T02:24:44.663Z,15.91
2018-12-11T02:27:17.672Z,15.91
2018-12-11T02:29:50.893Z,15.92
2018-12-11T02:32:24.107Z,15.93
2018-12-11T02:34:57.877Z,15.94
2018-12-11T02:37:30.864Z,15.92
2018-12-11T02:40:04.150Z,15.95
2018-12-11T02:42:37.017Z,15.98
2018-12-11T02:45:10.786Z,16.05
2018-12-11T02:47:43.935Z,16.11
2018-12-11T02:50:17.231Z,16.14
2018-12-11T02:52:50.287Z,16.16
2018-12-11T02:55:23.515Z,16.22
2018-12-11T02:57:56.651Z,16.13
2018-12-11T03:00:29.797Z,16.22
2018-12-11T03:03:02.835Z,16.22
2018-12-11T03:05:36.437Z,16.26
2018-12-11T03:08:09.936Z,16.37
2018-12-11T03:10:43.833Z,16.42
2018-12-11T03:13:17.745Z,16.47
2018-12-11T03:15:51.076Z,16.46
2018-12-11T03:18:23.963Z,16.53
2018-12-11T03:20:57.020Z,16.62
2018-12-11T03:23:30.321Z,16.67
2018-12-11T03:26:04.129Z,16.70
2018-12-11T03:28:37.077Z,16.69
2018-12-11T03:31:10.270Z,16.72
2018-12-11T03:33:43.350Z,16.69
2018-12-11T03:36:17.153Z,16.78
2018-12-11T03:38:50.077Z,16.84
2018-12-11T03:41:23.550Z,16.91
2018-12-11T03:43:56.604Z,16.94
2018-12-11T03:46:30.496Z,16.93
2018-12-11T03:49:03.888Z,16.94
2018-12-11T03:51:36.928Z,16.96
2018-12-11T03:54:09.966Z,17.02
2018-12-11T03:56:43.198Z,17.09
2018-12-11T03:59:16.330Z,17.12
2018-12-11T04:01:49.767Z,17.40
2018-12-11T04:04:23.030Z,17.79
2018-12-11T04:06:57.034Z,17.99
2018-12-11T04:09:30.105Z,18.03
2018-12-11T04:12:03.428Z,18.11
2018-12-11T04:14:36.791Z,18.19
2018-12-11T04:17:10.800Z,18.15
2018-12-11T04:19:44.114Z,18.18
2018-12-11T04:22:17.026Z,18.27
2018-12-11T04:24:50.291Z,18.32
2018-12-11T04:27:23.581Z,18.33
2018-12-11T04:29:56.680Z,18.40
2018-12-11T04:32:29.678Z,18.37
2018-12-11T04:35:03.481Z,18.29
2018-12-11T04:37:37.295Z,18.28
2018-12-11T04:40:11.158Z,18.48
2018-12-11T04:42:45.557Z,18.53
2018-12-11T04:45:18.865Z,18.47
2018-12-11T04:47:52.303Z,18.55
2018-12-11T04:50:25.709Z,18.58
2018-12-11T04:52:59.386Z,18.32
2018-12-11T04:55:32.870Z,18.54
2018-12-11T04:58:06.115Z,18.60
2018-12-11T05:00:39.468Z,18.60
2018-12-11T05:03:13.423Z,18.61
2018-12-11T05:05:46.435Z,18.59
2018-12-11T05:08:19.926Z,18.60
2018-12-11T05:10:53.231Z,18.65
2018-12-11T05:13:26.621Z,18.71
2018-12-11T05:16:00.202Z,18.52
2018-12-11T05:18:33.485Z,18.48
2018-12-11T05:21:07.420Z,18.41
2018-12-11T05:23:40.752Z,18.62
2018-12-11T05:26:14.349Z,18.70
2018-12-11T05:28:47.615Z,18.61
2018-12-11T05:31:23.334Z,18.59
2018-12-11T05:33:57.853Z,18.56
2018-12-11T05:36:31.629Z,18.52
2018-12-11T05:39:06.980Z,18.52
2018-12-11T05:41:40.667Z,18.61
2018-12-11T05:53:14.660Z,18.68
2018-12-11T05:55:48.414Z,18.72
2018-12-11T05:58:21.968Z,18.71
2018-12-11T06:00:55.783Z,18.74
2018-12-11T06:03:32.191Z,18.83
2018-12-11T06:06:05.719Z,18.80
2018-12-11T06:08:40.335Z,18.90
2018-12-11T06:11:23.074Z,18.89
2018-12-11T06:13:56.315Z,18.89
2018-12-11T06:16:30.069Z,18.86
2018-12-11T06:19:04.270Z,18.92
2018-12-11T06:21:38.017Z,18.92
2018-12-11T06:24:11.312Z,18.97
2018-12-11T06:26:46.512Z,19.04
2018-12-11T06:29:20.064Z,19.04
2018-12-11T06:31:53.452Z,19.21
2018-12-11T06:34:26.877Z,19.18
2018-12-11T06:37:00.420Z,19.41
2018-12-11T06:39:33.818Z,19.25
2018-12-11T06:48:06.886Z,19.30
2018-12-11T06:50:40.907Z,19.50
2018-12-11T06:53:14.323Z,19.52
2018-12-11T06:55:48.772Z,19.54
2018-12-11T06:58:22.551Z,19.73
2018-12-11T07:00:56.623Z,19.52
2018-12-11T07:03:30.214Z,19.56
2018-12-11T07:06:03.629Z,19.53
2018-12-11T07:08:37.004Z,19.88
2018-12-11T07:11:10.292Z,19.93
2018-12-11T07:13:43.981Z,19.83
2018-12-11T07:16:18.357Z,19.82
2018-12-11T07:18:52.046Z,19.66
2018-12-11T07:21:26.056Z,19.68
2018-12-11T07:23:59.328Z,19.85
2018-12-11T07:26:32.771Z,20.05
2018-12-11T07:29:05.924Z,19.94
2018-12-11T07:31:38.990Z,19.97
2018-12-11T07:34:12.222Z,19.84
2018-12-11T07:36:45.644Z,19.90
2018-12-11T07:39:18.615Z,19.96
2018-12-11T07:41:52.299Z,19.98
2018-12-11T07:44:25.617Z,19.93
2018-12-11T07:46:59.295Z,20.32
2018-12-11T07:49:32.707Z,20.20
2018-12-11T07:52:06.746Z,20.01
2018-12-11T07:54:41.303Z,20.15
2018-12-11T07:57:15.751Z,20.04
2018-12-11T07:59:49.956Z,19.89
2018-12-11T08:02:23.793Z,20.22
2018-12-11T08:04:57.308Z,20.26
2018-12-11T08:07:31.168Z,20.14
2018-12-11T08:10:05.223Z,20.34
2018-12-11T08:12:39.215Z,20.07
2018-12-11T08:15:12.853Z,20.11
2018-12-11T08:17:46.303Z,20.01
2018-12-11T08:20:19.395Z,20.21
2018-12-11T08:22:53.057Z,20.28
2018-12-11T08:25:25.527Z,20.50
2018-12-11T08:27:58.343Z,20.53
2018-12-11T08:30:30.226Z,20.55
2018-12-11T08:33:02.133Z,20.37
2018-12-11T08:35:34.003Z,20.31
2018-12-11T08:38:05.872Z,20.26
2018-12-11T08:40:37.778Z,20.28
2018-12-11T08:43:09.327Z,20.35
2018-12-11T08:45:41.119Z,20.20
2018-12-11T08:48:12.590Z,20.11
2018-12-11T08:50:44.292Z,20.38
2018-12-11T08:53:16.304Z,20.43
2018-12-11T08:55:48.072Z,20.42
2018-12-11T08:58:20.885Z,20.24
2018-12-11T09:00:52.640Z,20.39
2018-12-11T09:03:24.165Z,20.30
2018-12-11T09:05:56.304Z,20.27
2018-12-11T09:08:27.883Z,20.43
2018-12-11T09:10:59.635Z,20.56
2018-12-11T09:13:31.171Z,20.29
2018-12-11T09:16:03.478Z,20.23
2018-12-11T09:18:35.101Z,20.37
2018-12-11T09:21:06.924Z,20.33
2018-12-11T09:23:39.062Z,20.35
2018-12-11T09:26:10.880Z,20.29
2018-12-11T09:28:43.053Z,20.33
2018-12-11T09:31:15.189Z,20.39
2018-12-11T09:33:46.611Z,20.31
2018-12-11T09:36:18.331Z,20.51
2018-12-11T09:38:49.838Z,20.34
2018-12-11T09:41:21.431Z,20.50
2018-12-11T09:43:53.005Z,20.45
2018-12-11T09:46:24.463Z,20.35
2018-12-11T09:48:56.179Z,20.55
2018-12-11T09:51:29.260Z,20.71
2018-12-11T09:54:04.119Z,20.69
2018-12-11T09:56:38.278Z,20.58
2018-12-11T09:59:10.330Z,20.42
2018-12-11T10:01:41.937Z,20.39
2018-12-11T10:04:13.586Z,20.49
2018-12-11T10:06:50.705Z,20.49
2018-12-11T10:09:31.420Z,20.54
2018-12-11T10:12:03.925Z,20.57
2018-12-11T10:14:35.437Z,20.43
2018-12-11T10:20:10.413Z,20.53
2018-12-11T10:22:45.692Z,20.46
2018-12-11T10:25:24.992Z,20.41
2018-12-11T10:28:00.427Z,20.28
2018-12-11T10:30:40.633Z,20.18
2018-12-11T10:33:16.011Z,20.17
2018-12-11T10:35:47.766Z,20.16
2018-12-11T10:38:23.880Z,20.19
2018-12-11T10:40:59.432Z,20.16
2018-12-11T10:43:36.291Z,20.16
2018-12-11T10:46:11.929Z,20.15
2018-12-11T10:48:46.977Z,20.16
2018-12-11T10:51:20.344Z,20.14
2018-12-11T10:53:56.811Z,20.10
2018-12-11T10:56:32.246Z,20.11
2018-12-11T10:59:10.234Z,20.12
2018-12-11T11:01:50.769Z,20.10
2018-12-11T11:04:25.619Z,20.08
2018-12-11T11:07:01.130Z,20.05
2018-12-11T11:09:35.909Z,20.03
2018-12-11T11:12:11.209Z,20.02
2018-12-11T11:14:46.365Z,20.00
2018-12-11T11:17:24.996Z,19.97
2018-12-11T11:20:00.400Z,19.95
2018-12-11T11:25:33.479Z,20.35
2018-12-11T11:28:10.235Z,20.37
2018-12-11T11:30:56.884Z,20.31
2018-12-11T11:33:37.059Z,20.35
2018-12-11T11:36:23.432Z,20.36
2018-12-11T11:38:55.962Z,20.46
2018-12-11T11:41:27.497Z,20.34
2018-12-11T11:44:10.158Z,20.36
2018-12-11T11:46:44.022Z,20.37
2018-12-11T11:49:19.544Z,20.27
2018-12-11T11:51:51.043Z,20.30
2018-12-11T11:54:23.646Z,20.23
2018-12-11T11:56:55.261Z,20.28
2018-12-11T11:59:27.149Z,20.29
2018-12-11T12:01:59.402Z,20.29
2018-12-11T12:04:32.053Z,20.30
2018-12-11T12:07:04.349Z,20.35
2018-12-11T12:09:37.467Z,20.11
2018-12-11T12:12:10.418Z,19.76
2018-12-11T12:14:41.989Z,19.67
2018-12-11T12:17:13.619Z,19.61
2018-12-11T12:19:45.139Z,19.58
2018-12-11T12:25:14.560Z,19.49
2018-12-11T12:27:46.112Z,19.46
2018-12-11T12:30:26.496Z,19.45
2018-12-11T12:32:58.111Z,19.42
2018-12-11T12:35:29.864Z,19.39
2018-12-11T12:38:01.385Z,19.35
2018-12-11T12:40:33.204Z,19.33
2018-12-11T12:43:04.801Z,19.30
2018-12-11T12:45:40.003Z,19.23
2018-12-11T12:48:11.518Z,19.25
2018-12-11T12:50:43.275Z,19.25
2018-12-11T12:53:14.857Z,19.25
2018-12-11T12:55:46.317Z,19.23
2018-12-11T12:58:17.943Z,19.24
2018-12-11T13:00:50.166Z,19.22
2018-12-11T13:03:21.900Z,19.22
2018-12-11T13:05:55.259Z,19.25
2018-12-11T13:08:28.154Z,19.24
2018-12-11T13:10:59.665Z,19.23
2018-12-11T13:13:31.533Z,19.19
2018-12-11T13:16:05.135Z,19.17
2018-12-11T13:18:40.320Z,19.16
2018-12-11T13:21:11.668Z,19.17
2018-12-11T13:23:43.540Z,19.14
2018-12-11T13:26:15.278Z,19.13
2018-12-11T13:28:46.738Z,19.11
2018-12-11T13:31:22.473Z,19.11
2018-12-11T13:33:57.271Z,19.09
2018-12-11T13:36:33.359Z,19.04
2018-12-11T13:39:09.264Z,19.01
2018-12-11T13:41:41.848Z,18.98
2018-12-11T13:44:13.756Z,18.93
2018-12-11T13:46:45.104Z,18.93
2018-12-11T13:49:17.571Z,18.90
2018-12-11T13:51:48.992Z,18.93
2018-12-11T13:54:20.563Z,18.91
2018-12-11T13:56:51.901Z,18.92
2018-12-11T13:59:24.380Z,19.42
2018-12-11T14:01:56.390Z,19.40
2018-12-11T14:04:30.077Z,19.36
2018-12-11T14:07:02.448Z,19.07
2018-12-11T14:09:42.418Z,18.97
2018-12-11T14:12:14.337Z,18.91
2018-12-11T14:15:01.600Z,18.84
2018-12-11T14:17:38.863Z,18.83
2018-12-11T14:23:18.455Z,18.81
2018-12-11T14:25:51.468Z,18.71
2018-12-11T14:28:23.288Z,18.73
2018-12-11T14:30:54.948Z,18.78
2018-12-11T14:33:26.974Z,18.76
2018-12-11T14:36:05.348Z,18.76
2018-12-11T14:38:40.712Z,18.74
2018-12-11T14:41:16.104Z,18.75
2018-12-11T14:43:52.392Z,18.70
2018-12-11T14:46:27.308Z,18.68
2018-12-11T14:48:58.891Z,18.67
2018-12-11T14:51:36.233Z,18.66
2018-12-11T14:54:14.013Z,18.67
2018-12-11T14:56:45.522Z,18.59
2018-12-11T14:59:29.118Z,18.52
2018-12-11T15:02:06.600Z,18.54
2018-12-11T15:04:46.011Z,18.59
2018-12-11T15:07:23.778Z,18.60
2018-12-11T15:09:58.678Z,18.57
2018-12-11T15:12:33.296Z,18.56
2018-12-11T15:15:05.133Z,18.55
2018-12-11T15:17:38.955Z,18.56
2018-12-11T15:20:16.370Z,18.55
2018-12-11T15:22:48.070Z,18.55
2018-12-11T15:25:28.400Z,18.51
2018-12-11T15:28:03.746Z,18.50
2018-12-11T15:30:35.373Z,18.45
2018-12-11T15:33:06.908Z,18.43
2018-12-11T15:35:44.089Z,18.43
2018-12-11T15:38:15.681Z,18.55
2018-12-11T15:40:47.304Z,18.56
2018-12-11T15:43:36.045Z,18.55
2018-12-11T15:46:07.833Z,18.55
2018-12-11T15:48:40.339Z,18.49
2018-12-11T15:51:12.361Z,18.47
2018-12-11T15:53:44.265Z,18.34
2018-12-11T15:56:16.450Z,18.32
2018-12-11T15:58:48.766Z,18.25
2018-12-11T16:01:20.665Z,18.31
2018-12-11T16:03:52.968Z,18.27
2018-12-11T16:06:26.129Z,18.22
2018-12-11T16:09:01.039Z,18.25
2018-12-11T16:11:35.401Z,18.27
2018-12-11T16:14:07.292Z,18.28
2018-12-11T16:16:39.389Z,18.28
2018-12-11T16:19:11.203Z,18.31
2018-12-11T16:21:43.419Z,18.27
2018-12-11T16:24:15.234Z,18.25
2018-12-11T16:26:47.121Z,18.24
2018-12-11T16:29:18.682Z,18.24
2018-12-11T16:31:50.671Z,18.16
2018-12-11T16:34:22.615Z,18.19
2018-12-11T16:36:54.869Z,18.12
2018-12-11T16:39:27.202Z,18.08
2018-12-11T16:42:00.059Z,18.10
2018-12-11T16:44:32.153Z,18.07
2018-12-11T16:47:04.140Z,18.02
2018-12-11T16:49:35.763Z,18.07
2018-12-11T16:52:15.299Z,18.08
2018-12-11T16:54:47.035Z,18.08
2018-12-11T16:57:19.783Z,18.05
2018-12-11T16:59:51.938Z,18.10
2018-12-11T17:02:23.782Z,18.06
2018-12-11T17:04:55.816Z,17.97
2018-12-11T17:07:28.332Z,17.95
2018-12-11T17:10:00.326Z,17.95
2018-12-11T17:12:33.235Z,18.02
2018-12-11T17:15:05.841Z,18.03
2018-12-11T17:17:37.994Z,17.99
2018-12-11T17:20:10.091Z,17.94
2018-12-11T17:22:41.920Z,17.95
2018-12-11T17:25:14.450Z,17.90
2018-12-11T17:27:46.436Z,17.86
2018-12-11T17:30:18.417Z,17.83
2018-12-11T17:32:50.535Z,17.80
2018-12-11T17:35:22.207Z,17.82
2018-12-11T17:37:54.491Z,17.76
2018-12-11T17:40:26.594Z,17.80
2018-12-11T17:42:58.224Z,17.80
2018-12-11T17:45:30.087Z,17.87
2018-12-11T17:48:02.557Z,17.94
2018-12-11T17:50:34.327Z,17.94
2018-12-11T17:53:06.423Z,17.95
2018-12-11T17:55:38.097Z,18.05
2018-12-11T17:58:10.010Z,18.03
2018-12-11T18:00:41.697Z,18.03
2018-12-11T18:03:14.475Z,17.94
2018-12-11T18:05:46.675Z,17.99
2018-12-11T18:08:20.047Z,17.96
2018-12-11T18:10:52.537Z,17.94
2018-12-11T18:13:24.534Z,17.99
2018-12-11T18:15:56.263Z,17.94
2018-12-11T18:18:28.212Z,17.95
2018-12-11T18:21:00.427Z,17.84
2018-12-11T18:23:32.315Z,17.95
2018-12-11T18:26:04.230Z,18.01
2018-12-11T18:28:36.164Z,18.02
2018-12-11T18:31:08.547Z,17.98
2018-12-11T18:33:40.273Z,17.93
2018-12-11T18:36:11.902Z,17.88
2018-12-11T18:38:45.587Z,17.83
2018-12-11T18:41:17.400Z,17.87
2018-12-11T18:43:49.300Z,17.92
2018-12-11T18:46:21.130Z,17.80
2018-12-11T18:48:53.293Z,17.81
2018-12-11T18:51:25.112Z,17.79
2018-12-11T18:53:56.860Z,17.80
2018-12-11T18:56:28.507Z,17.73
2018-12-11T18:59:00.433Z,17.61
2018-12-11T19:01:32.151Z,17.68
2018-12-11T19:04:04.075Z,17.73
2018-12-11T19:06:37.808Z,17.76
2018-12-11T19:09:11.221Z,17.78
2018-12-11T19:11:45.908Z,17.71
2018-12-11T19:14:18.288Z,17.75
2018-12-11T19:16:51.459Z,17.68
2018-12-11T19:19:23.508Z,17.67
2018-12-11T19:21:55.696Z,17.71
2018-12-11T19:27:44.873Z,17.63
2018-12-11T19:30:16.899Z,17.67
2018-12-11T19:32:50.820Z,17.67
2018-12-11T19:35:24.139Z,17.73
2018-12-11T19:37:59.328Z,17.70
2018-12-11T19:40:40.547Z,17.72
2018-12-11T19:43:08.856Z,17.63
2018-12-11T19:45:40.981Z,17.58
2018-12-11T19:48:12.810Z,17.60
2018-12-11T19:50:44.492Z,17.55
2018-12-11T19:53:16.690Z,17.62
2018-12-11T19:55:48.506Z,17.59
2018-12-11T19:58:20.423Z,17.62
2018-12-11T20:00:51.986Z,17.64
2018-12-11T20:03:24.266Z,17.58
2018-12-11T20:05:56.334Z,17.63
2018-12-11T20:08:31.066Z,17.65
2018-12-11T20:11:03.338Z,17.62
2018-12-11T20:13:35.438Z,17.60
2018-12-11T20:16:07.002Z,17.64
2018-12-11T20:18:39.491Z,17.64
2018-12-11T20:21:12.418Z,17.60
2018-12-11T20:23:45.400Z,17.62
2018-12-11T20:26:20.107Z,17.61
2018-12-11T20:28:52.720Z,17.55
2018-12-11T20:31:24.678Z,17.58
2018-12-11T20:33:57.072Z,17.46
2018-12-11T20:36:28.890Z,17.41
2018-12-11T20:39:00.975Z,17.34
2018-12-11T20:41:35.693Z,17.38
2018-12-11T20:44:07.793Z,17.38
2018-12-11T20:46:39.682Z,17.43
2018-12-11T20:49:11.433Z,17.38
2018-12-11T20:51:43.092Z,17.42
2018-12-11T20:54:15.285Z,17.37
2018-12-11T20:56:47.192Z,17.35
2018-12-11T20:59:19.084Z,17.46
2018-12-11T21:01:51.067Z,17.48
2018-12-11T21:04:23.239Z,17.49
2018-12-11T21:06:55.317Z,17.50
2018-12-11T21:09:27.163Z,17.47
2018-12-11T21:12:00.197Z,17.44
2018-12-11T21:14:32.891Z,17.39
2018-12-11T21:17:04.752Z,17.44
2018-12-11T21:19:36.615Z,17.45
2018-12-11T21:22:08.497Z,17.43
2018-12-11T21:24:40.362Z,17.44
2018-12-11T21:27:12.331Z,17.42
2018-12-11T21:29:44.289Z,17.38
2018-12-11T21:32:15.995Z,17.34
2018-12-11T21:34:47.955Z,17.43
2018-12-11T21:37:19.620Z,17.42
2018-12-11T21:39:51.431Z,17.39
2018-12-11T21:42:23.635Z,17.38
2018-12-11T21:44:56.705Z,17.41
2018-12-11T21:47:28.555Z,17.46
2018-12-11T21:50:00.384Z,17.48
2018-12-11T21:52:32.316Z,17.48
2018-12-11T21:55:04.288Z,17.44
2018-12-11T21:57:36.268Z,17.44
2018-12-11T22:00:10.473Z,17.43
2018-12-11T22:02:43.648Z,17.33
2018-12-11T22:05:15.420Z,17.47
2018-12-11T22:07:47.257Z,17.49
2018-12-11T22:10:19.257Z,17.45
2018-12-11T22:12:52.306Z,17.38
2018-12-11T22:15:24.078Z,17.39
2018-12-11T22:17:55.995Z,17.41
2018-12-11T22:20:27.552Z,17.43
2018-12-11T22:22:59.307Z,17.42
2018-12-11T22:25:30.918Z,17.43
2018-12-11T22:28:02.952Z,17.45
2018-12-11T22:30:34.861Z,17.42
2018-12-11T22:33:06.756Z,17.45
2018-12-11T22:35:38.542Z,17.39
2018-12-11T22:38:10.484Z,17.38
2018-12-11T22:40:42.179Z,17.37
2018-12-11T22:43:14.524Z,17.33
2018-12-11T22:45:46.324Z,17.28
2018-12-11T22:48:19.444Z,17.31
2018-12-11T22:50:51.406Z,17.29
2018-12-11T22:53:24.484Z,17.29
2018-12-11T22:55:56.259Z,17.30
2018-12-11T22:58:28.012Z,17.19
2018-12-11T23:00:59.858Z,17.30
2018-12-11T23:03:33.793Z,17.31
2018-12-11T23:06:06.051Z,17.32
2018-12-11T23:08:40.538Z,17.27
2018-12-11T23:11:12.458Z,17.26
2018-12-11T23:13:45.150Z,17.32
2018-12-11T23:16:16.959Z,17.23
2018-12-11T23:18:48.641Z,17.20
2018-12-11T23:21:20.615Z,17.16
2018-12-11T23:23:52.435Z,17.03
2018-12-11T23:26:24.432Z,17.17
2018-12-11T23:28:56.339Z,17.10
2018-12-11T23:31:28.398Z,17.07
2018-12-11T23:34:00.339Z,17.10
2018-12-11T23:36:32.293Z,17.11
2018-12-11T23:39:05.212Z,17.12
2018-12-11T23:41:39.289Z,17.05
2018-12-11T23:44:11.808Z,17.11
2018-12-11T23:46:43.910Z,17.11
2018-12-11T23:49:16.062Z,17.18
2018-12-11T23:51:48.297Z,17.09
2018-12-11T23:54:19.940Z,17.11
2018-12-11T23:56:51.932Z,17.21
2018-12-11T23:59:28.976Z,17.11
